Terminal Aerodrome Forecast
Issued by NWS Tampa Bay Area, FL

Home | Current Version | Previous Version | Text Only | Print | Product List | Glossary On
Versions: 1 2 3 4 5 6 7 8 9 10 11 12 13 14 15 16 17 18 19 20 21 22 23 24
221
FTUS42 KTBW 071124
TAFSRQ
TAF
KSRQ 071124Z 0712/0812 VRB04KT P6SM SCT020
      TEMPO 0712/0714 3/4SM BR BKN025
     FM071400 35005KT P6SM SCT015 SCT250
     FM071900 31007KT P6SM FEW020 SCT250
     FM080200 VRB03KT P6SM FEW015 SCT100=

USA.gov is the U.S. government's official web portal to all federal, state and local government web resources and services.